Time,TemperatureF,DewpointF,PressureIn,WindDirection,WindDirectionDegrees,WindSpeedMPH,WindSpeedGustMPH,Humidity,HourlyPrecipIn,Conditions,Clouds,dailyrainin,SoftwareType,DateUTC
2013-08-08 00:00:00,67.5,66.9,30.02,South,171,0.0,0.0,98,0.00,,---,0.00,VWS V14.01,2013-08-08 04:00:00,
2013-08-08 00:01:00,67.5,66.9,30.02,South,171,0.0,0.0,98,0.00,,---,0.00,VWS V14.01,2013-08-08 04:01:00,
2013-08-08 00:06:00,67.5,66.9,30.02,ESE,122,0.0,1.0,98,0.00,,---,0.00,VWS V14.01,2013-08-08 04:06:00,
2013-08-08 00:11:00,67.3,66.7,30.02,SE,124,0.0,1.0,98,0.00,,---,0.00,VWS V14.01,2013-08-08 04:11:00,
2013-08-08 00:16:00,67.0,66.4,30.02,ENE,77,0.0,1.0,98,0.00,,---,0.00,VWS V14.01,2013-08-08 04:16:00,
2013-08-08 00:21:00,66.7,65.8,30.02,ESE,123,0.0,1.0,97,0.00,,---,0.00,VWS V14.01,2013-08-08 04:21:00,
2013-08-08 00:26:00,66.3,65.4,30.02,ESE,108,0.0,1.0,97,0.00,,---,0.00,VWS V14.01,2013-08-08 04:26:00,
2013-08-08 00:30:00,68.1,67.2,30.01,SSW,207,0.0,1.0,97,0.00,,---,0.01,VWS V14.01,2013-08-08 04:30:00,
2013-08-08 00:31:00,66.1,65.2,30.02,SSE,161,0.0,1.0,97,0.00,,---,0.00,VWS V14.01,2013-08-08 04:31:00,
2013-08-08 00:36:00,66.0,65.1,30.02,SSE,161,0.0,1.0,97,0.00,,---,0.00,VWS V14.01,2013-08-08 04:36:00,
2013-08-08 00:41:00,65.9,65.0,30.03,SSE,153,0.0,1.0,97,0.00,,---,0.00,VWS V14.01,2013-08-08 04:41:00,
2013-08-08 00:46:00,65.8,64.9,30.03,ESE,117,0.0,1.0,97,0.00,,---,0.00,VWS V14.01,2013-08-08 04:46:00,
2013-08-08 00:51:00,65.7,64.8,30.03,SE,136,0.0,2.0,97,0.00,,---,0.00,VWS V14.01,2013-08-08 04:51:00,
2013-08-08 00:56:00,65.6,64.7,30.03,SSW,192,0.0,2.0,97,0.00,,---,0.00,VWS V14.01,2013-08-08 04:56:00,
2013-08-08 01:00:00,67.5,66.9,30.02,South,171,0.0,0.0,98,0.00,,---,0.00,VWS V14.01,2013-08-08 05:00:00,
2013-08-08 01:01:00,65.5,64.6,30.02,SSW,197,0.0,0.0,97,0.00,,---,0.00,VWS V14.01,2013-08-08 05:01:00,
2013-08-08 01:06:00,65.4,64.5,30.02,SSW,196,0.0,0.0,97,0.00,,---,0.00,VWS V14.01,2013-08-08 05:06:00,
2013-08-08 01:11:00,65.3,64.4,30.02,SSW,196,0.0,0.0,97,0.00,,---,0.00,VWS V14.01,2013-08-08 05:11:00,
2013-08-08 01:16:00,65.1,64.2,30.02,East,98,0.0,1.0,97,0.00,,---,0.00,VWS V14.01,2013-08-08 05:16:00,
2013-08-08 01:21:00,64.9,64.0,30.02,East,99,0.0,1.0,97,0.00,,---,0.00,VWS V14.01,2013-08-08 05:21:00,
2013-08-08 01:26:00,64.8,63.9,30.02,East,99,0.0,1.0,97,0.00,,---,0.00,VWS V14.01,2013-08-08 05:26:00,
2013-08-08 01:30:00,66.2,65.3,30.02,SE,145,0.0,1.0,97,0.00,,---,0.00,VWS V14.01,2013-08-08 05:30:00,
2013-08-08 01:31:00,64.7,63.8,30.01,East,99,0.0,0.0,97,0.00,,---,0.00,VWS V14.01,2013-08-08 05:31:00,
2013-08-08 01:36:00,64.6,63.7,30.02,East,99,0.0,0.0,97,0.00,,---,0.00,VWS V14.01,2013-08-08 05:36:00,
2013-08-08 01:41:00,64.5,63.6,30.01,East,94,0.0,1.0,97,0.00,,---,0.00,VWS V14.01,2013-08-08 05:41:00,
2013-08-08 01:46:00,64.4,63.5,30.01,East,94,0.0,1.0,97,0.00,,---,0.00,VWS V14.01,2013-08-08 05:46:00,
2013-08-08 01:51:00,64.4,63.8,30.01,East,94,0.0,1.0,98,0.00,,---,0.00,VWS V14.01,2013-08-08 05:51:00,
2013-08-08 01:56:00,64.3,63.7,30.01,East,94,0.0,1.0,98,0.00,,---,0.00,VWS V14.01,2013-08-08 05:56:00,
2013-08-08 02:00:00,65.5,64.6,30.02,SSW,195,0.0,2.0,97,0.00,,---,0.00,VWS V14.01,2013-08-08 06:00:00,
2013-08-08 02:01:00,64.3,63.7,30.01,SE,138,0.0,1.0,98,0.00,,---,0.00,VWS V14.01,2013-08-08 06:01:00,
2013-08-08 02:06:00,64.2,63.6,30.01,SE,138,0.0,1.0,98,0.00,,---,0.00,VWS V14.01,2013-08-08 06:06:00,
2013-08-08 02:11:00,64.1,63.5,30.01,SE,137,0.0,1.0,98,0.00,,---,0.00,VWS V14.01,2013-08-08 06:11:00,
2013-08-08 02:16:00,64.1,63.5,30.01,SE,137,0.0,1.0,98,0.00,,---,0.00,VWS V14.01,2013-08-08 06:16:00,
2013-08-08 02:21:00,63.9,63.3,30.01,SE,137,0.0,1.0,98,0.00,,---,0.00,VWS V14.01,2013-08-08 06:21:00,
2013-08-08 02:26:00,63.9,63.3,30.01,SE,137,0.0,1.0,98,0.00,,---,0.00,VWS V14.01,2013-08-08 06:26:00,
2013-08-08 02:30:00,64.7,63.8,30.01,East,99,0.0,1.0,97,0.00,,---,0.00,VWS V14.01,2013-08-08 06:30:00,
2013-08-08 02:31:00,63.9,63.3,30.01,SE,138,0.0,0.0,98,0.00,,---,0.00,VWS V14.01,2013-08-08 06:31:00,
2013-08-08 02:36:00,63.9,63.3,30.01,SE,137,0.0,0.0,98,0.00,,---,0.00,VWS V14.01,2013-08-08 06:36:00,
2013-08-08 02:41:00,63.8,63.2,30.01,SE,137,0.0,0.0,98,0.00,,---,0.00,VWS V14.01,2013-08-08 06:41:00,
2013-08-08 02:46:00,63.8,63.2,30.01,SE,138,0.0,0.0,98,0.00,,---,0.00,VWS V14.01,2013-08-08 06:46:00,
2013-08-08 02:51:00,63.8,63.2,30.01,SE,138,0.0,0.0,98,0.00,,---,0.00,VWS V14.01,2013-08-08 06:51:00,
2013-08-08 02:56:00,63.7,63.1,30.01,SE,137,0.0,0.0,98,0.00,,---,0.00,VWS V14.01,2013-08-08 06:56:00,
2013-08-08 03:00:00,64.3,63.7,30.01,SE,129,0.0,1.0,98,0.00,,---,0.00,VWS V14.01,2013-08-08 07:00:00,
2013-08-08 03:01:00,63.4,62.8,30.01,SE,131,0.0,0.0,98,0.00,,---,0.00,VWS V14.01,2013-08-08 07:01:00,
2013-08-08 03:06:00,63.2,62.6,30.01,SE,131,0.0,0.0,98,0.00,,---,0.00,VWS V14.01,2013-08-08 07:06:00,
2013-08-08 03:11:00,63.0,62.4,30.01,SE,131,0.0,0.0,98,0.00,,---,0.00,VWS V14.01,2013-08-08 07:11:00,
2013-08-08 03:16:00,62.8,62.2,30.01,SE,131,0.0,0.0,98,0.00,,---,0.00,VWS V14.01,2013-08-08 07:16:00,
2013-08-08 03:21:00,62.8,62.2,30.01,SE,131,0.0,0.0,98,0.00,,---,0.00,VWS V14.01,2013-08-08 07:21:00,
2013-08-08 03:26:00,62.8,62.2,30.01,SE,132,0.0,0.0,98,0.00,,---,0.00,VWS V14.01,2013-08-08 07:26:00,
2013-08-08 03:30:00,64.0,63.4,30.01,SE,138,0.0,1.0,98,0.00,,---,0.00,VWS V14.01,2013-08-08 07:30:00,
2013-08-08 03:31:00,62.8,62.2,30.01,SE,131,0.0,0.0,98,0.00,,---,0.00,VWS V14.01,2013-08-08 07:31:00,
2013-08-08 03:36:00,62.8,62.2,30.00,SE,132,0.0,0.0,98,0.00,,---,0.00,VWS V14.01,2013-08-08 07:36:00,
2013-08-08 03:41:00,62.8,62.2,30.00,SE,131,0.0,0.0,98,0.00,,---,0.00,VWS V14.01,2013-08-08 07:41:00,
2013-08-08 03:46:00,62.9,62.3,30.00,SE,131,0.0,0.0,98,0.00,,---,0.00,VWS V14.01,2013-08-08 07:46:00,
2013-08-08 03:51:00,62.8,62.2,30.00,SE,131,0.0,0.0,98,0.00,,---,0.00,VWS V14.01,2013-08-08 07:51:00,
2013-08-08 03:56:00,62.8,62.2,30.00,SE,131,0.0,0.0,98,0.00,,---,0.00,VWS V14.01,2013-08-08 07:56:00,
2013-08-08 04:00:00,63.5,62.9,30.01,SE,131,0.0,0.0,98,0.00,,---,0.00,VWS V14.01,2013-08-08 08:00:00,
2013-08-08 04:01:00,62.9,62.3,30.00,SE,131,0.0,0.0,98,0.00,,---,0.00,VWS V14.01,2013-08-08 08:01:00,
2013-08-08 04:06:00,63.0,62.4,30.00,SE,131,0.0,0.0,98,0.00,,---,0.00,VWS V14.01,2013-08-08 08:06:00,
2013-08-08 04:11:00,63.0,62.7,30.00,SE,131,0.0,0.0,99,0.00,,---,0.00,VWS V14.01,2013-08-08 08:11:00,
2013-08-08 04:16:00,63.0,62.7,30.00,SE,131,0.0,0.0,99,0.00,,---,0.00,VWS V14.01,2013-08-08 08:16:00,
2013-08-08 04:21:00,63.3,63.0,30.00,SE,131,0.0,0.0,99,0.00,,---,0.00,VWS V14.01,2013-08-08 08:21:00,
2013-08-08 04:26:00,63.4,63.1,30.00,SE,131,0.0,0.0,99,0.00,,---,0.00,VWS V14.01,2013-08-08 08:26:00,
2013-08-08 04:30:00,62.8,62.2,30.01,SE,131,0.0,0.0,98,0.00,,---,0.00,VWS V14.01,2013-08-08 08:30:00,
2013-08-08 04:31:00,63.5,63.2,30.00,SE,131,0.0,0.0,99,0.00,,---,0.00,VWS V14.01,2013-08-08 08:31:00,
2013-08-08 04:36:00,63.5,63.2,30.00,SE,131,0.0,0.0,99,0.00,,---,0.00,VWS V14.01,2013-08-08 08:36:00,
2013-08-08 04:41:00,63.6,63.3,30.00,SE,131,0.0,0.0,99,0.00,,---,0.00,VWS V14.01,2013-08-08 08:41:00,
2013-08-08 04:46:00,63.7,63.4,30.00,SE,131,0.0,0.0,99,0.00,,---,0.00,VWS V14.01,2013-08-08 08:46:00,
2013-08-08 04:51:00,63.6,63.3,30.00,SE,131,0.0,0.0,99,0.00,,---,0.00,VWS V14.01,2013-08-08 08:51:00,
2013-08-08 04:56:00,63.6,63.3,30.01,SE,131,0.0,0.0,99,0.00,,---,0.00,VWS V14.01,2013-08-08 08:56:00,
2013-08-08 05:00:00,62.8,62.2,30.00,SE,131,0.0,0.0,98,0.00,,---,0.00,VWS V14.01,2013-08-08 09:00:00,
2013-08-08 05:01:00,63.5,63.2,30.01,SE,131,0.0,0.0,99,0.00,,---,0.00,VWS V14.01,2013-08-08 09:01:00,
2013-08-08 05:06:00,63.6,63.3,30.01,SE,131,0.0,0.0,99,0.00,,---,0.00,VWS V14.01,2013-08-08 09:06:00,
2013-08-08 05:11:00,63.7,63.4,30.01,SE,131,0.0,0.0,99,0.00,,---,0.00,VWS V14.01,2013-08-08 09:11:00,
2013-08-08 05:16:00,63.7,63.4,30.01,SE,131,0.0,0.0,99,0.00,,---,0.00,VWS V14.01,2013-08-08 09:16:00,
2013-08-08 05:21:00,63.7,63.4,30.01,SE,131,0.0,0.0,99,0.00,,---,0.00,VWS V14.01,2013-08-08 09:21:00,
2013-08-08 05:26:00,63.8,63.5,30.01,SE,131,0.0,0.0,99,0.00,,---,0.00,VWS V14.01,2013-08-08 09:26:00,
2013-08-08 05:30:00,63.5,63.2,30.00,SE,131,0.0,0.0,99,0.00,,---,0.00,VWS V14.01,2013-08-08 09:30:00,
2013-08-08 05:31:00,63.8,63.5,30.01,SE,131,0.0,0.0,99,0.00,,---,0.00,VWS V14.01,2013-08-08 09:31:00,
2013-08-08 05:36:00,63.9,63.6,30.01,SE,131,0.0,0.0,99,0.00,,---,0.00,VWS V14.01,2013-08-08 09:36:00,
2013-08-08 05:41:00,63.9,63.6,30.01,SE,131,0.0,0.0,99,0.00,,---,0.00,VWS V14.01,2013-08-08 09:41:00,
2013-08-08 05:46:00,63.9,63.6,30.01,SE,131,0.0,0.0,99,0.00,,---,0.00,VWS V14.01,2013-08-08 09:46:00,
2013-08-08 05:51:00,64.0,63.7,30.01,SE,131,0.0,0.0,99,0.00,,---,0.00,VWS V14.01,2013-08-08 09:51:00,
2013-08-08 05:56:00,64.0,63.7,30.02,SE,131,0.0,0.0,99,0.00,,---,0.00,VWS V14.01,2013-08-08 09:56:00,
2013-08-08 06:00:00,63.6,63.3,30.01,SE,131,0.0,0.0,99,0.00,,---,0.00,VWS V14.01,2013-08-08 10:00:00,
2013-08-08 06:01:00,64.0,63.7,30.02,SE,131,0.0,0.0,99,0.00,,---,0.00,VWS V14.01,2013-08-08 10:01:00,
2013-08-08 06:06:00,64.0,63.7,30.02,SE,131,0.0,0.0,99,0.00,,---,0.00,VWS V14.01,2013-08-08 10:06:00,
2013-08-08 06:11:00,64.0,63.7,30.02,SE,131,0.0,0.0,99,0.00,,---,0.00,VWS V14.01,2013-08-08 10:11:00,
2013-08-08 06:16:00,64.0,63.7,30.02,SE,131,0.0,0.0,99,0.00,,---,0.00,VWS V14.01,2013-08-08 10:16:00,
2013-08-08 06:21:00,64.1,63.8,30.03,SE,131,0.0,0.0,99,0.00,,---,0.00,VWS V14.01,2013-08-08 10:21:00,
2013-08-08 06:26:00,64.1,63.8,30.03,SE,131,0.0,0.0,99,0.00,,---,0.00,VWS V14.01,2013-08-08 10:26:00,
2013-08-08 06:30:00,63.8,63.5,30.01,SE,131,0.0,0.0,99,0.00,,---,0.00,VWS V14.01,2013-08-08 10:30:00,
2013-08-08 06:31:00,64.1,63.8,30.03,SE,131,0.0,0.0,99,0.00,,---,0.00,VWS V14.01,2013-08-08 10:31:00,
2013-08-08 06:36:00,64.1,63.8,30.03,SE,131,0.0,0.0,99,0.00,,---,0.00,VWS V14.01,2013-08-08 10:36:00,
2013-08-08 06:40:00,64.1,63.8,30.02,SE,131,0.0,0.0,99,0.00,,---,0.00,VWS V14.01,2013-08-08 10:40:00,
2013-08-08 06:46:00,64.0,63.7,30.02,SE,131,0.0,0.0,99,0.00,,---,0.00,VWS V14.01,2013-08-08 10:46:00,
2013-08-08 06:51:00,63.9,63.6,30.02,SE,131,0.0,0.0,99,0.00,,---,0.00,VWS V14.01,2013-08-08 10:51:00,
2013-08-08 06:56:00,64.0,63.7,30.02,SE,131,0.0,0.0,99,0.00,,---,0.00,VWS V14.01,2013-08-08 10:56:00,
2013-08-08 07:00:00,64.0,63.7,30.02,SE,131,0.0,0.0,99,0.00,,---,0.00,VWS V14.01,2013-08-08 11:00:00,
2013-08-08 07:01:00,64.0,63.7,30.02,SE,131,0.0,0.0,99,0.00,,---,0.00,VWS V14.01,2013-08-08 11:01:00,
2013-08-08 07:06:00,64.0,63.7,30.02,SE,131,0.0,0.0,99,0.00,,---,0.00,VWS V14.01,2013-08-08 11:06:00,
2013-08-08 07:11:00,64.1,63.8,30.02,SE,131,0.0,0.0,99,0.00,,---,0.00,VWS V14.01,2013-08-08 11:11:00,
2013-08-08 07:16:00,64.2,63.9,30.03,SE,131,0.0,0.0,99,0.00,,---,0.00,VWS V14.01,2013-08-08 11:16:00,
2013-08-08 07:21:00,64.3,64.0,30.03,SE,131,0.0,0.0,99,0.00,,---,0.00,VWS V14.01,2013-08-08 11:21:00,
2013-08-08 07:26:00,64.5,64.2,30.03,South,170,0.0,0.0,99,0.00,,---,0.00,VWS V14.01,2013-08-08 11:26:00,
2013-08-08 07:30:00,64.1,63.8,30.03,SE,131,0.0,0.0,99,0.00,,---,0.00,VWS V14.01,2013-08-08 11:30:00,
2013-08-08 07:31:00,64.6,64.3,30.03,South,170,0.0,0.0,99,0.00,,---,0.00,VWS V14.01,2013-08-08 11:31:00,
2013-08-08 07:36:00,64.7,64.4,30.03,South,170,0.0,0.0,99,0.00,,---,0.00,VWS V14.01,2013-08-08 11:36:00,
2013-08-08 07:41:00,64.8,64.5,30.04,South,169,0.0,0.0,99,0.00,,---,0.00,VWS V14.01,2013-08-08 11:41:00,
2013-08-08 07:46:00,64.9,64.6,30.04,SSE,148,0.0,0.0,99,0.00,,---,0.00,VWS V14.01,2013-08-08 11:46:00,
2013-08-08 07:51:00,65.0,64.7,30.04,SSE,148,0.0,0.0,99,0.00,,---,0.00,VWS V14.01,2013-08-08 11:51:00,
2013-08-08 07:56:00,65.0,64.7,30.05,SSE,148,0.0,0.0,99,0.00,,---,0.00,VWS V14.01,2013-08-08 11:56:00,
2013-08-08 08:00:00,64.0,63.7,30.02,SE,131,0.0,0.0,99,0.00,,---,0.00,VWS V14.01,2013-08-08 12:00:00,
2013-08-08 08:01:00,64.9,64.6,30.05,SSE,148,0.0,0.0,99,0.00,,---,0.00,VWS V14.01,2013-08-08 12:01:00,
2013-08-08 08:06:00,65.0,64.7,30.04,SSE,148,0.0,0.0,99,0.00,,---,0.00,VWS V14.01,2013-08-08 12:06:00,
2013-08-08 08:11:00,65.1,64.8,30.04,SSE,148,0.0,0.0,99,0.00,,---,0.00,VWS V14.01,2013-08-08 12:11:00,
2013-08-08 08:16:00,65.2,64.9,30.04,SSE,148,0.0,0.0,99,0.00,,---,0.00,VWS V14.01,2013-08-08 12:16:00,
2013-08-08 08:21:00,65.2,64.9,30.04,SSE,148,0.0,0.0,99,0.00,,---,0.00,VWS V14.01,2013-08-08 12:21:00,
2013-08-08 08:26:00,65.2,64.9,30.04,SSE,148,0.0,0.0,99,0.00,,---,0.00,VWS V14.01,2013-08-08 12:26:00,
2013-08-08 08:30:00,64.6,64.3,30.03,South,170,0.0,0.0,99,0.00,,---,0.00,VWS V14.01,2013-08-08 12:30:00,
2013-08-08 08:31:00,65.3,65.0,30.04,SSE,148,0.0,0.0,99,0.00,,---,0.00,VWS V14.01,2013-08-08 12:31:00,
2013-08-08 08:36:00,65.3,65.0,30.04,SSE,148,0.0,0.0,99,0.00,,---,0.00,VWS V14.01,2013-08-08 12:36:00,
2013-08-08 08:41:00,65.3,65.0,30.04,SSE,148,0.0,0.0,99,0.00,,---,0.00,VWS V14.01,2013-08-08 12:41:00,
2013-08-08 08:46:00,65.4,65.1,30.04,SSE,148,0.0,0.0,99,0.00,,---,0.00,VWS V14.01,2013-08-08 12:46:00,
2013-08-08 08:51:00,65.5,65.2,30.04,SSE,148,0.0,0.0,99,0.00,,---,0.00,VWS V14.01,2013-08-08 12:51:00,
2013-08-08 08:56:00,65.4,65.1,30.04,ESE,108,0.0,0.0,99,0.00,,---,0.00,VWS V14.01,2013-08-08 12:56:00,
2013-08-08 09:00:00,64.9,64.6,30.05,SSE,148,0.0,0.0,99,0.00,,---,0.00,VWS V14.01,2013-08-08 13:00:00,
2013-08-08 09:01:00,65.5,65.2,30.04,ESE,108,0.0,0.0,99,0.00,,---,0.00,VWS V14.01,2013-08-08 13:01:00,
2013-08-08 09:06:00,65.5,65.2,30.04,ESE,108,0.0,0.0,99,0.00,,---,0.00,VWS V14.01,2013-08-08 13:06:00,
2013-08-08 09:11:00,65.6,65.3,30.04,ESE,105,0.0,1.0,99,0.00,,---,0.00,VWS V14.01,2013-08-08 13:11:00,
2013-08-08 09:16:00,65.8,65.5,30.04,ESE,105,0.0,1.0,99,0.00,,---,0.00,VWS V14.01,2013-08-08 13:16:00,
2013-08-08 09:21:00,65.9,65.6,30.04,NNE,13,0.0,1.0,99,0.00,,---,0.00,VWS V14.01,2013-08-08 13:21:00,
2013-08-08 09:26:00,66.1,65.8,30.04,NE,51,0.0,1.0,99,0.00,,---,0.00,VWS V14.01,2013-08-08 13:26:00,
2013-08-08 09:30:00,65.3,65.0,30.04,SSE,148,0.0,0.0,99,0.00,,---,0.00,VWS V14.01,2013-08-08 13:30:00,
2013-08-08 09:31:00,66.6,66.3,30.04,ENE,60,0.0,0.0,99,0.00,,---,0.00,VWS V14.01,2013-08-08 13:31:00,
2013-08-08 09:36:00,66.8,66.2,30.04,NNE,27,0.0,1.0,98,0.00,,---,0.00,VWS V14.01,2013-08-08 13:36:00,
2013-08-08 09:41:00,67.0,66.1,30.04,NNE,26,0.0,1.0,97,0.00,,---,0.00,VWS V14.01,2013-08-08 13:41:00,
2013-08-08 09:46:00,67.1,66.2,30.03,NNE,26,0.0,1.0,97,0.00,,---,0.00,VWS V14.01,2013-08-08 13:46:00,
2013-08-08 09:51:00,67.2,66.0,30.03,NE,44,0.0,1.0,96,0.00,,---,0.00,VWS V14.01,2013-08-08 13:51:00,
2013-08-08 09:56:00,67.5,66.3,30.03,NE,44,0.0,1.0,96,0.00,,---,0.00,VWS V14.01,2013-08-08 13:56:00,
2013-08-08 10:00:00,65.5,65.2,30.04,ESE,108,0.0,0.0,99,0.00,,---,0.00,VWS V14.01,2013-08-08 14:00:00,
2013-08-08 10:01:00,67.6,66.4,30.03,NE,44,0.0,0.0,96,0.00,,---,0.00,VWS V14.01,2013-08-08 14:01:00,
2013-08-08 10:06:00,67.9,66.4,30.03,ENE,77,0.0,0.0,95,0.00,,---,0.00,VWS V14.01,2013-08-08 14:06:00,
2013-08-08 10:11:00,68.0,66.5,30.03,NE,55,1.0,1.0,95,0.00,,---,0.00,VWS V14.01,2013-08-08 14:11:00,
2013-08-08 10:16:00,68.0,66.5,30.03,North,10,0.0,2.0,95,0.00,,---,0.00,VWS V14.01,2013-08-08 14:16:00,
2013-08-08 10:21:00,68.2,66.7,30.03,NNE,31,0.0,2.0,95,0.00,,---,0.00,VWS V14.01,2013-08-08 14:21:00,
2013-08-08 10:26:00,68.2,66.7,30.03,NE,52,0.0,2.0,95,0.00,,---,0.00,VWS V14.01,2013-08-08 14:26:00,
2013-08-08 10:30:00,66.5,66.2,30.03,ENE,60,0.0,1.0,99,0.00,,---,0.00,VWS V14.01,2013-08-08 14:30:00,
2013-08-08 10:31:00,68.4,66.6,30.03,NE,51,0.0,1.0,94,0.00,,---,0.00,VWS V14.01,2013-08-08 14:31:00,
2013-08-08 10:36:00,68.9,67.1,30.02,NE,46,0.0,1.0,94,0.00,,---,0.00,VWS V14.01,2013-08-08 14:36:00,
2013-08-08 10:41:00,69.4,67.3,30.02,NE,43,0.0,1.0,93,0.00,,---,0.00,VWS V14.01,2013-08-08 14:41:00,
2013-08-08 10:46:00,69.6,67.2,30.02,NE,44,0.0,1.0,92,0.00,,---,0.00,VWS V14.01,2013-08-08 14:46:00,
2013-08-08 10:51:00,69.9,67.5,30.02,NE,43,0.0,1.0,92,0.00,,---,0.00,VWS V14.01,2013-08-08 14:51:00,
2013-08-08 10:56:00,70.2,67.4,30.02,NE,43,0.0,1.0,91,0.00,,---,0.00,VWS V14.01,2013-08-08 14:56:00,
2013-08-08 11:00:00,67.6,66.4,30.03,NE,44,0.0,1.0,96,0.00,,---,0.00,VWS V14.01,2013-08-08 15:00:00,
2013-08-08 11:01:00,70.4,68.0,30.02,NE,42,0.0,0.0,92,0.00,,---,0.00,VWS V14.01,2013-08-08 15:01:00,
2013-08-08 11:06:00,70.6,67.8,30.02,SSW,211,0.0,1.0,91,0.00,,---,0.00,VWS V14.01,2013-08-08 15:06:00,
2013-08-08 11:11:00,70.8,67.7,30.02,ESE,121,0.0,1.0,90,0.00,,---,0.00,VWS V14.01,2013-08-08 15:11:00,
2013-08-08 11:16:00,71.3,68.2,30.02,SW,225,0.0,2.0,90,0.00,,---,0.00,VWS V14.01,2013-08-08 15:16:00,
2013-08-08 11:21:00,71.5,68.4,30.01,SE,146,0.0,2.0,90,0.00,,---,0.00,VWS V14.01,2013-08-08 15:21:00,
2013-08-08 11:26:00,71.8,68.4,30.01,WSW,258,0.0,2.0,89,0.00,,---,0.00,VWS V14.01,2013-08-08 15:26:00,
2013-08-08 11:30:00,68.3,66.5,30.03,NE,51,0.0,2.0,94,0.00,,---,0.00,VWS V14.01,2013-08-08 15:30:00,
2013-08-08 11:31:00,72.0,68.6,30.01,WNW,297,0.0,0.0,89,0.00,,---,0.00,VWS V14.01,2013-08-08 15:31:00,
2013-08-08 11:36:00,72.1,68.3,30.01,SW,230,0.0,2.0,88,0.00,,---,0.00,VWS V14.01,2013-08-08 15:36:00,
2013-08-08 11:41:00,72.3,68.6,30.01,SW,222,0.0,3.0,88,0.01,,---,0.01,VWS V14.01,2013-08-08 15:41:00,
2013-08-08 11:46:00,72.5,68.8,30.01,SW,226,0.0,3.0,88,0.01,,---,0.01,VWS V14.01,2013-08-08 15:46:00,
2013-08-08 11:51:00,72.6,68.8,30.01,SW,226,0.0,3.0,88,0.01,,---,0.01,VWS V14.01,2013-08-08 15:51:00,
2013-08-08 11:56:00,72.9,69.1,30.02,SW,217,1.0,3.0,88,0.01,,---,0.01,VWS V14.01,2013-08-08 15:56:00,
2013-08-08 12:00:00,70.3,67.9,30.02,NE,42,0.0,1.0,92,0.00,,---,0.00,VWS V14.01,2013-08-08 16:00:00,
2013-08-08 12:01:00,73.1,69.0,30.01,SSW,202,0.0,1.0,87,0.01,,---,0.01,VWS V14.01,2013-08-08 16:01:00,
2013-08-08 12:06:00,73.3,68.9,30.01,SSW,199,0.0,3.0,86,0.01,,---,0.01,VWS V14.01,2013-08-08 16:06:00,
2013-08-08 12:11:00,73.6,69.2,30.01,SSW,207,0.0,3.0,86,0.01,,---,0.01,VWS V14.01,2013-08-08 16:11:00,
2013-08-08 12:16:00,73.8,69.0,30.01,SW,217,0.0,3.0,85,0.01,,---,0.01,VWS V14.01,2013-08-08 16:16:00,
2013-08-08 12:21:00,74.2,69.4,30.01,SSE,155,0.0,3.0,85,0.01,,---,0.01,VWS V14.01,2013-08-08 16:21:00,
2013-08-08 12:26:00,74.0,69.2,30.02,SSW,193,0.0,3.0,85,0.01,,---,0.01,VWS V14.01,2013-08-08 16:26:00,
2013-08-08 12:30:00,72.0,68.6,30.01,SW,217,0.0,2.0,89,0.00,,---,0.00,VWS V14.01,2013-08-08 16:30:00,
2013-08-08 12:31:00,73.6,69.5,30.02,SSW,213,0.0,0.0,87,0.01,,---,0.01,VWS V14.01,2013-08-08 16:31:00,
2013-08-08 12:36:00,73.7,69.3,30.02,WSW,240,0.0,2.0,86,0.01,,---,0.01,VWS V14.01,2013-08-08 16:36:00,
2013-08-08 12:41:00,73.8,69.3,30.02,SSW,213,0.0,2.0,86,0.01,,---,0.01,VWS V14.01,2013-08-08 16:41:00,
2013-08-08 12:46:00,73.9,69.8,30.02,SW,215,0.0,2.0,87,0.01,,---,0.01,VWS V14.01,2013-08-08 16:46:00,
2013-08-08 12:51:00,74.3,70.2,30.02,SSW,200,0.0,2.0,87,0.01,,---,0.01,VWS V14.01,2013-08-08 16:51:00,
2013-08-08 12:56:00,74.8,70.0,30.02,SE,129,0.0,2.0,85,0.01,,---,0.01,VWS V14.01,2013-08-08 16:56:00,
2013-08-08 13:00:00,73.1,69.0,30.01,SW,219,1.0,3.0,87,0.01,,---,0.01,VWS V14.01,2013-08-08 17:00:00,
2013-08-08 13:01:00,74.9,70.4,30.02,ESE,116,0.0,0.0,86,0.00,,---,0.01,VWS V14.01,2013-08-08 17:01:00,
2013-08-08 13:06:00,75.1,70.6,30.02,ESE,106,0.0,1.0,86,0.00,,---,0.01,VWS V14.01,2013-08-08 17:06:00,
2013-08-08 13:11:00,75.4,70.6,30.02,ENE,63,0.0,2.0,85,0.00,,---,0.01,VWS V14.01,2013-08-08 17:11:00,
2013-08-08 13:16:00,75.8,70.6,30.02,ESE,108,1.0,3.0,84,0.00,,---,0.01,VWS V14.01,2013-08-08 17:16:00,
2013-08-08 13:21:00,76.1,70.9,30.02,ESE,103,2.0,3.0,84,0.00,,---,0.01,VWS V14.01,2013-08-08 17:21:00,
2013-08-08 13:26:00,76.1,70.9,30.02,East,92,1.0,3.0,84,0.00,,---,0.01,VWS V14.01,2013-08-08 17:26:00,
2013-08-08 13:30:00,73.6,69.2,30.02,SSW,192,0.0,3.0,86,0.01,,---,0.01,VWS V14.01,2013-08-08 17:30:00,
2013-08-08 13:31:00,76.9,71.3,30.02,South,169,0.0,1.0,83,0.00,,---,0.01,VWS V14.01,2013-08-08 17:31:00,
2013-08-08 13:36:00,77.8,71.1,30.02,SW,235,0.0,2.0,80,0.00,,---,0.01,VWS V14.01,2013-08-08 17:36:00,
2013-08-08 13:41:00,77.9,71.2,30.02,ESE,121,1.0,2.0,80,0.00,,---,0.01,VWS V14.01,2013-08-08 17:41:00,
2013-08-08 13:46:00,78.3,72.4,30.02,ENE,70,0.0,2.0,82,0.00,,---,0.01,VWS V14.01,2013-08-08 17:46:00,
2013-08-08 13:51:00,79.3,71.8,30.01,SSE,148,0.0,3.0,78,0.00,,---,0.01,VWS V14.01,2013-08-08 17:51:00,
2013-08-08 13:56:00,80.2,72.3,30.01,SW,217,2.0,4.0,77,0.00,,---,0.01,VWS V14.01,2013-08-08 17:56:00,
2013-08-08 14:00:00,74.9,70.4,30.02,ESE,117,0.0,2.0,86,0.01,,---,0.01,VWS V14.01,2013-08-08 18:00:00,
2013-08-08 14:01:00,80.2,71.6,30.01,ESE,105,4.0,4.0,75,0.00,,---,0.01,VWS V14.01,2013-08-08 18:01:00,
2013-08-08 14:06:00,79.7,73.0,30.01,East,84,0.0,4.0,80,0.00,,---,0.01,VWS V14.01,2013-08-08 18:06:00,
2013-08-08 14:11:00,80.6,71.9,30.01,East,98,3.0,4.0,75,0.00,,---,0.01,VWS V14.01,2013-08-08 18:11:00,
2013-08-08 14:16:00,79.6,71.4,30.01,SE,134,3.0,8.0,76,0.00,,---,0.01,VWS V14.01,2013-08-08 18:16:00,
2013-08-08 14:21:00,79.8,71.9,30.01,SW,229,1.0,8.0,77,0.00,,---,0.01,VWS V14.01,2013-08-08 18:21:00,
2013-08-08 14:26:00,81.1,72.8,30.00,ESE,107,6.0,8.0,76,0.00,,---,0.01,VWS V14.01,2013-08-08 18:26:00,
2013-08-08 14:30:00,76.8,71.6,30.02,East,84,0.0,3.0,84,0.00,,---,0.01,VWS V14.01,2013-08-08 18:30:00,
2013-08-08 14:31:00,81.4,71.9,30.00,ENE,73,3.0,7.0,73,0.00,,---,0.01,VWS V14.01,2013-08-08 18:31:00,
2013-08-08 14:36:00,81.3,73.0,30.00,WSW,249,1.0,7.0,76,0.00,,---,0.01,VWS V14.01,2013-08-08 18:36:00,
2013-08-08 14:41:00,82.0,72.9,30.00,SW,226,1.0,8.0,74,0.00,,---,0.01,VWS V14.01,2013-08-08 18:41:00,
2013-08-08 14:46:00,83.1,72.3,30.00,SW,222,2.0,8.0,70,0.00,,---,0.01,VWS V14.01,2013-08-08 18:46:00,
2013-08-08 14:51:00,83.0,71.8,30.00,South,180,2.0,8.0,69,0.00,,---,0.01,VWS V14.01,2013-08-08 18:51:00,
2013-08-08 14:56:00,82.7,72.3,30.00,SE,139,0.0,8.0,71,0.00,,---,0.01,VWS V14.01,2013-08-08 18:56:00,
2013-08-08 15:00:00,80.4,71.8,30.01,ENE,66,2.0,6.0,75,0.00,,---,0.01,VWS V14.01,2013-08-08 19:00:00,
2013-08-08 15:01:00,82.9,72.1,29.99,ESE,103,3.0,7.0,70,0.00,,---,0.01,VWS V14.01,2013-08-08 19:01:00,
2013-08-08 15:06:00,83.1,72.3,29.99,ENE,69,3.0,7.0,70,0.00,,---,0.01,VWS V14.01,2013-08-08 19:06:00,
2013-08-08 15:11:00,83.3,72.1,29.99,SW,224,2.0,7.0,69,0.00,,---,0.01,VWS V14.01,2013-08-08 19:11:00,
2013-08-08 15:16:00,83.4,71.7,29.98,NNW,344,0.0,7.0,68,0.00,,---,0.01,VWS V14.01,2013-08-08 19:16:00,
2013-08-08 15:21:00,83.6,72.4,29.99,ESE,122,0.0,7.0,69,0.00,,---,0.01,VWS V14.01,2013-08-08 19:21:00,
2013-08-08 15:26:00,84.1,72.4,29.98,ESE,113,3.0,7.0,68,0.00,,---,0.01,VWS V14.01,2013-08-08 19:26:00,
2013-08-08 15:30:00,81.4,72.3,30.00,ESE,122,1.0,8.0,74,0.00,,---,0.01,VWS V14.01,2013-08-08 19:30:00,
2013-08-08 15:31:00,83.8,72.1,29.98,NE,44,0.0,2.0,68,0.00,,---,0.01,VWS V14.01,2013-08-08 19:31:00,
2013-08-08 15:36:00,83.9,72.2,29.97,ESE,105,1.0,6.0,68,0.00,,---,0.01,VWS V14.01,2013-08-08 19:36:00,
2013-08-08 15:41:00,83.7,72.0,29.97,SSE,166,0.0,6.0,68,0.00,,---,0.01,VWS V14.01,2013-08-08 19:41:00,
2013-08-08 15:46:00,83.6,72.4,29.97,SSE,166,2.0,6.0,69,0.00,,---,0.01,VWS V14.01,2013-08-08 19:46:00,
2013-08-08 15:51:00,82.9,71.7,29.97,East,89,2.0,7.0,69,0.00,,---,0.01,VWS V14.01,2013-08-08 19:51:00,
2013-08-08 15:56:00,82.7,72.3,29.97,East,84,2.0,7.0,71,0.00,,---,0.01,VWS V14.01,2013-08-08 19:56:00,
2013-08-08 16:00:00,82.9,72.1,29.99,SE,125,1.0,8.0,70,0.00,,---,0.01,VWS V14.01,2013-08-08 20:00:00,
2013-08-08 16:01:00,82.4,72.1,29.96,South,186,0.0,1.0,71,0.00,,---,0.01,VWS V14.01,2013-08-08 20:01:00,
2013-08-08 16:06:00,83.5,73.1,29.96,ENE,72,2.0,4.0,71,0.00,,---,0.01,VWS V14.01,2013-08-08 20:06:00,
2013-08-08 16:11:00,82.8,72.0,29.96,East,89,1.0,4.0,70,0.00,,---,0.01,VWS V14.01,2013-08-08 20:11:00,
2013-08-08 16:16:00,82.8,72.4,29.96,ESE,108,0.0,5.0,71,0.00,,---,0.01,VWS V14.01,2013-08-08 20:16:00,
2013-08-08 16:21:00,83.5,72.3,29.96,ESE,115,2.0,5.0,69,0.00,,---,0.01,VWS V14.01,2013-08-08 20:21:00,
2013-08-08 16:26:00,83.4,72.2,29.95,WSW,252,0.0,5.0,69,0.00,,---,0.01,VWS V14.01,2013-08-08 20:26:00,
2013-08-08 16:30:00,83.8,71.7,29.98,South,185,1.0,7.0,67,0.00,,---,0.01,VWS V14.01,2013-08-08 20:30:00,
2013-08-08 16:31:00,83.6,71.9,29.96,WSW,238,2.0,3.0,68,0.00,,---,0.01,VWS V14.01,2013-08-08 20:31:00,
2013-08-08 16:36:00,84.2,72.1,29.95,NNW,333,2.0,6.0,67,0.00,,---,0.01,VWS V14.01,2013-08-08 20:36:00,
2013-08-08 16:41:00,84.9,71.8,29.95,SE,130,1.0,6.0,65,0.00,,---,0.01,VWS V14.01,2013-08-08 20:41:00,
2013-08-08 16:46:00,84.7,72.5,29.95,SSE,164,1.0,6.0,67,0.00,,---,0.01,VWS V14.01,2013-08-08 20:46:00,
2013-08-08 16:51:00,84.5,71.9,29.95,ESE,108,0.0,6.0,66,0.00,,---,0.01,VWS V14.01,2013-08-08 20:51:00,
2013-08-08 16:56:00,84.5,72.3,29.95,ESE,120,2.0,6.0,67,0.00,,---,0.01,VWS V14.01,2013-08-08 20:56:00,
2013-08-08 17:00:00,82.3,72.0,29.96,SE,133,1.0,7.0,71,0.00,,---,0.01,VWS V14.01,2013-08-08 21:00:00,
2013-08-08 17:01:00,84.3,71.7,29.95,ESE,120,0.0,1.0,66,0.00,,---,0.01,VWS V14.01,2013-08-08 21:01:00,
2013-08-08 17:06:00,84.2,71.6,29.95,West,271,0.0,3.0,66,0.00,,---,0.01,VWS V14.01,2013-08-08 21:06:00,
2013-08-08 17:11:00,84.7,71.6,29.95,NE,49,1.0,3.0,65,0.00,,---,0.01,VWS V14.01,2013-08-08 21:11:00,
2013-08-08 17:17:00,84.5,71.4,29.95,SSE,147,1.0,4.0,65,0.00,,---,0.01,VWS V14.01,2013-08-08 21:17:00,
2013-08-08 17:22:00,84.3,71.3,29.95,SSE,151,0.0,4.0,65,0.00,,---,0.01,VWS V14.01,2013-08-08 21:22:00,
2013-08-08 17:27:00,84.6,71.6,29.95,NE,54,0.0,5.0,65,0.00,,---,0.01,VWS V14.01,2013-08-08 21:27:00,
2013-08-08 17:30:00,83.6,71.9,29.95,West,274,2.0,5.0,68,0.00,,---,0.01,VWS V14.01,2013-08-08 21:30:00,
2013-08-08 17:32:00,85.0,72.4,29.95,SW,221,1.0,2.0,66,0.00,,---,0.01,VWS V14.01,2013-08-08 21:32:00,
2013-08-08 17:37:00,84.9,71.4,29.95,WSW,255,2.0,3.0,64,0.00,,---,0.01,VWS V14.01,2013-08-08 21:37:00,
2013-08-08 17:42:00,84.9,71.8,29.95,SSW,197,0.0,3.0,65,0.00,,---,0.01,VWS V14.01,2013-08-08 21:42:00,
2013-08-08 17:48:00,84.5,71.0,29.94,SW,223,2.0,6.0,64,0.00,,---,0.01,VWS V14.01,2013-08-08 21:48:00,
2013-08-08 17:53:00,83.7,71.1,29.95,SW,230,2.0,6.0,66,0.00,,---,0.01,VWS V14.01,2013-08-08 21:53:00,
2013-08-08 17:59:00,83.5,71.4,29.94,SW,231,0.0,6.0,67,0.00,,---,0.01,VWS V14.01,2013-08-08 21:59:00,
2013-08-08 18:00:00,84.4,72.2,29.95,SW,215,1.0,6.0,67,0.00,,---,0.01,VWS V14.01,2013-08-08 22:00:00,
2013-08-08 18:04:00,83.4,71.7,29.94,SW,229,0.0,2.0,68,0.00,,---,0.01,VWS V14.01,2013-08-08 22:04:00,
2013-08-08 18:09:00,83.2,71.6,29.94,SW,214,2.0,2.0,68,0.00,,---,0.01,VWS V14.01,2013-08-08 22:09:00,
2013-08-08 18:14:00,83.1,71.4,29.94,SW,219,1.0,3.0,68,0.00,,---,0.01,VWS V14.01,2013-08-08 22:14:00,
2013-08-08 18:19:00,83.0,71.8,29.94,SW,219,0.0,3.0,69,0.00,,---,0.01,VWS V14.01,2013-08-08 22:19:00,
2013-08-08 18:24:00,82.8,72.0,29.94,SSW,211,0.0,3.0,70,0.00,,---,0.01,VWS V14.01,2013-08-08 22:24:00,
2013-08-08 18:29:00,82.6,71.8,29.94,SSW,203,0.0,3.0,70,0.00,,---,0.01,VWS V14.01,2013-08-08 22:29:00,
2013-08-08 18:30:00,82.5,71.7,29.94,SSW,199,0.0,3.0,70,0.00,,---,0.01,VWS V14.01,2013-08-08 22:30:00,
2013-08-08 18:34:00,82.2,71.4,29.94,SSW,211,0.0,4.0,70,0.00,,---,0.01,VWS V14.01,2013-08-08 22:34:00,
2013-08-08 18:40:00,82.0,71.7,29.94,West,270,1.0,4.0,71,0.00,,---,0.01,VWS V14.01,2013-08-08 22:40:00,
2013-08-08 18:45:00,81.9,72.0,29.94,SW,221,1.0,4.0,72,0.00,,---,0.01,VWS V14.01,2013-08-08 22:45:00,
2013-08-08 18:50:00,81.8,71.9,29.94,SSW,197,0.0,4.0,72,0.00,,---,0.01,VWS V14.01,2013-08-08 22:50:00,
2013-08-08 18:55:00,81.7,72.2,29.94,SW,225,1.0,4.0,73,0.00,,---,0.01,VWS V14.01,2013-08-08 22:55:00,
2013-08-08 19:00:00,81.7,72.2,29.94,SW,221,0.0,4.0,73,0.00,,---,0.01,VWS V14.01,2013-08-08 23:00:00,
2013-08-08 19:05:00,81.6,72.1,29.94,SW,221,0.0,0.0,73,0.00,,---,0.01,VWS V14.01,2013-08-08 23:05:00,
2013-08-08 19:10:00,81.5,72.0,29.94,WSW,248,0.0,1.0,73,0.00,,---,0.01,VWS V14.01,2013-08-08 23:10:00,
2013-08-08 19:14:00,81.3,71.8,29.94,SW,223,0.0,1.0,73,0.00,,---,0.01,VWS V14.01,2013-08-08 23:14:00,
2013-08-08 19:19:00,81.0,71.9,29.94,SSE,155,0.0,1.0,74,0.00,,---,0.01,VWS V14.01,2013-08-08 23:19:00,
2013-08-08 19:25:00,80.7,72.0,29.94,SW,231,0.0,2.0,75,0.00,,---,0.01,VWS V14.01,2013-08-08 23:25:00,
2013-08-08 19:30:00,80.4,71.8,29.94,SW,229,0.0,2.0,75,0.00,,---,0.01,VWS V14.01,2013-08-08 23:30:00,
2013-08-08 19:35:00,80.1,71.9,29.94,SW,217,1.0,1.0,76,0.00,,---,0.01,VWS V14.01,2013-08-08 23:35:00,
2013-08-08 19:40:00,79.9,71.7,29.94,SW,214,0.0,2.0,76,0.00,,---,0.01,VWS V14.01,2013-08-08 23:40:00,
2013-08-08 19:46:00,79.8,71.9,29.94,SW,214,1.0,2.0,77,0.00,,---,0.01,VWS V14.01,2013-08-08 23:46:00,
2013-08-08 19:51:00,79.6,71.8,29.94,WSW,248,0.0,3.0,77,0.00,,---,0.01,VWS V14.01,2013-08-08 23:51:00,
2013-08-08 19:57:00,79.5,71.7,29.94,SW,219,0.0,3.0,77,0.00,,---,0.01,VWS V14.01,2013-08-08 23:57:00,
2013-08-08 20:00:00,79.4,71.6,29.95,SW,226,0.0,4.0,77,0.00,,---,0.01,VWS V14.01,2013-08-09 00:00:00,
2013-08-08 20:02:00,79.4,71.6,29.95,WSW,245,0.0,3.0,77,0.00,,---,0.01,VWS V14.01,2013-08-09 00:02:00,
2013-08-08 20:07:00,79.3,71.5,29.94,SW,230,1.0,3.0,77,0.00,,---,0.01,VWS V14.01,2013-08-09 00:07:00,
2013-08-08 20:12:00,79.3,71.8,29.94,SSW,213,1.0,3.0,78,0.00,,---,0.01,VWS V14.01,2013-08-09 00:12:00,
2013-08-08 20:17:00,79.2,71.8,29.94,SW,218,1.0,3.0,78,0.00,,---,0.01,VWS V14.01,2013-08-09 00:17:00,
2013-08-08 20:22:00,79.0,71.9,29.95,SW,224,0.0,3.0,79,0.00,,---,0.01,VWS V14.01,2013-08-09 00:22:00,
2013-08-08 20:27:00,78.8,71.7,29.95,SW,229,0.0,3.0,79,0.00,,---,0.01,VWS V14.01,2013-08-09 00:27:00,
2013-08-08 20:30:00,80.4,71.8,29.94,SW,229,0.0,2.0,75,0.00,,---,0.01,VWS V14.01,2013-08-09 00:30:00,
2013-08-08 20:32:00,78.7,72.0,29.95,SW,214,0.0,0.0,80,0.00,,---,0.01,VWS V14.01,2013-08-09 00:32:00,
2013-08-08 20:37:00,78.6,71.9,29.95,SW,226,0.0,1.0,80,0.00,,---,0.01,VWS V14.01,2013-08-09 00:37:00,
2013-08-08 20:42:00,78.4,71.7,29.95,SSW,212,0.0,1.0,80,0.00,,---,0.01,VWS V14.01,2013-08-09 00:42:00,
2013-08-08 20:48:00,78.2,71.9,29.95,SW,224,0.0,1.0,81,0.00,,---,0.01,VWS V14.01,2013-08-09 00:48:00,
2013-08-08 20:53:00,78.1,71.8,29.95,WSW,252,0.0,3.0,81,0.00,,---,0.01,VWS V14.01,2013-08-09 00:53:00,
2013-08-08 20:58:00,78.0,72.1,29.95,SW,231,0.0,3.0,82,0.00,,---,0.01,VWS V14.01,2013-08-09 00:58:00,
2013-08-08 21:00:00,79.4,71.6,29.95,SW,226,0.0,4.0,77,0.00,,---,0.01,VWS V14.01,2013-08-09 01:00:00,
2013-08-08 21:03:00,77.8,71.9,29.95,East,82,0.0,1.0,82,0.00,,---,0.01,VWS V14.01,2013-08-09 01:03:00,
2013-08-08 21:08:00,77.6,72.0,29.95,ENE,77,0.0,1.0,83,0.00,,---,0.01,VWS V14.01,2013-08-09 01:08:00,
2013-08-08 21:13:00,77.5,71.9,29.95,SSW,213,0.0,1.0,83,0.00,,---,0.01,VWS V14.01,2013-08-09 01:13:00,
2013-08-08 21:18:00,77.4,71.8,29.95,SW,219,0.0,3.0,83,0.00,,---,0.01,VWS V14.01,2013-08-09 01:18:00,
2013-08-08 21:23:00,77.2,71.6,29.95,SSW,207,0.0,3.0,83,0.00,,---,0.01,VWS V14.01,2013-08-09 01:23:00,
2013-08-08 21:28:00,77.1,71.9,29.95,SSE,147,0.0,3.0,84,0.00,,---,0.01,VWS V14.01,2013-08-09 01:28:00,
2013-08-08 21:30:00,78.8,71.7,29.95,SW,228,0.0,3.0,79,0.00,,---,0.01,VWS V14.01,2013-08-09 01:30:00,
2013-08-08 21:33:00,77.0,71.8,29.95,WSW,242,0.0,1.0,84,0.00,,---,0.01,VWS V14.01,2013-08-09 01:33:00,
2013-08-08 21:39:00,77.0,71.8,29.96,SW,214,0.0,4.0,84,0.00,,---,0.01,VWS V14.01,2013-08-09 01:39:00,
2013-08-08 21:44:00,77.0,71.8,29.96,SW,224,0.0,4.0,84,0.00,,---,0.01,VWS V14.01,2013-08-09 01:44:00,
2013-08-08 21:49:00,76.9,71.7,29.96,SW,215,0.0,4.0,84,0.00,,---,0.01,VWS V14.01,2013-08-09 01:49:00,
2013-08-08 21:54:00,76.8,71.9,29.96,SSW,208,0.0,4.0,85,0.00,,---,0.01,VWS V14.01,2013-08-09 01:54:00,
2013-08-08 21:59:00,76.9,72.1,29.96,SSW,207,0.0,4.0,85,0.00,,---,0.01,VWS V14.01,2013-08-09 01:59:00,
2013-08-08 22:00:00,77.9,72.0,29.95,SW,225,0.0,3.0,82,0.00,,---,0.01,VWS V14.01,2013-08-09 02:00:00,
2013-08-08 22:05:00,76.9,71.7,29.96,WSW,240,1.0,3.0,84,0.00,,---,0.01,VWS V14.01,2013-08-09 02:05:00,
2013-08-08 22:10:00,76.9,71.7,29.96,SW,235,3.0,5.0,84,0.00,,---,0.01,VWS V14.01,2013-08-09 02:10:00,
2013-08-08 22:15:00,76.9,71.7,29.97,SSW,205,0.0,5.0,84,0.00,,---,0.01,VWS V14.01,2013-08-09 02:15:00,
2013-08-08 22:20:00,76.9,72.1,29.96,SSW,198,0.0,5.0,85,0.00,,---,0.01,VWS V14.01,2013-08-09 02:20:00,
2013-08-08 22:25:00,76.8,71.9,29.96,SSE,165,0.0,5.0,85,0.00,,---,0.01,VWS V14.01,2013-08-09 02:25:00,
2013-08-08 22:30:00,76.8,71.9,29.96,SSE,165,0.0,0.0,85,0.00,,---,0.01,VWS V14.01,2013-08-09 02:30:00,
2013-08-08 22:35:00,76.7,71.9,29.96,SSE,165,0.0,0.0,85,0.00,,---,0.01,VWS V14.01,2013-08-09 02:35:00,
2013-08-08 22:40:00,76.6,71.8,29.96,SSE,165,0.0,0.0,85,0.00,,---,0.01,VWS V14.01,2013-08-09 02:40:00,
2013-08-08 22:45:00,76.5,72.0,29.95,SSE,165,0.0,0.0,86,0.00,,---,0.01,VWS V14.01,2013-08-09 02:45:00,
2013-08-08 22:50:00,76.4,71.9,29.95,SW,229,0.0,1.0,86,0.00,,---,0.01,VWS V14.01,2013-08-09 02:50:00,
2013-08-08 22:55:00,76.4,72.2,29.95,SW,224,0.0,1.0,87,0.00,,---,0.01,VWS V14.01,2013-08-09 02:55:00,
2013-08-08 23:00:00,76.9,72.1,29.96,SSW,210,0.0,4.0,85,0.00,,---,0.01,VWS V14.01,2013-08-09 03:00:00,
2013-08-08 23:01:00,76.2,72.1,29.95,SSW,205,0.0,0.0,87,0.00,,---,0.01,VWS V14.01,2013-08-09 03:01:00,
2013-08-08 23:06:00,76.1,72.3,29.95,SW,214,0.0,0.0,88,0.00,,---,0.01,VWS V14.01,2013-08-09 03:06:00,
2013-08-08 23:11:00,76.0,72.2,29.95,SW,214,0.0,4.0,88,0.00,,---,0.01,VWS V14.01,2013-08-09 03:11:00,
2013-08-08 23:16:00,76.0,71.9,29.95,SW,233,0.0,4.0,87,0.00,,---,0.01,VWS V14.01,2013-08-09 03:16:00,
2013-08-08 23:21:00,76.1,71.9,29.95,South,185,2.0,5.0,87,0.00,,---,0.01,VWS V14.01,2013-08-09 03:21:00,
2013-08-08 23:26:00,76.1,71.9,29.95,SSW,200,3.0,5.0,87,0.00,,---,0.01,VWS V14.01,2013-08-09 03:26:00,
2013-08-08 23:30:00,76.8,71.9,29.96,SSE,165,0.0,5.0,85,0.00,,---,0.01,VWS V14.01,2013-08-09 03:30:00,
2013-08-08 23:31:00,76.0,71.9,29.95,SSW,194,0.0,0.0,87,0.00,,---,0.01,VWS V14.01,2013-08-09 03:31:00,
2013-08-08 23:36:00,75.6,72.1,29.95,SW,214,0.0,1.0,89,0.00,,---,0.01,VWS V14.01,2013-08-09 03:36:00,
2013-08-08 23:41:00,75.4,71.9,29.95,SSW,208,0.0,1.0,89,0.00,,---,0.01,VWS V14.01,2013-08-09 03:41:00,
2013-08-08 23:47:00,75.4,71.9,29.95,SW,217,0.0,1.0,89,0.00,,---,0.01,VWS V14.01,2013-08-09 03:47:00,
2013-08-08 23:52:00,75.3,71.5,29.94,SW,218,0.0,4.0,88,0.00,,---,0.01,VWS V14.01,2013-08-09 03:52:00,
2013-08-08 23:57:00,75.3,71.5,29.95,SW,231,0.0,4.0,88,0.00,,---,0.01,VWS V14.01,2013-08-09 03:57:00,